RYR61ZQ LPPR-LFML
Flight info
| Callsign | RYR61ZQ |
|---|---|
| Flight time | N/A |
| Altitude | 38000 |
| Route | BELDU DCT CANAR DCT ADORO L155 ZMR DCT NEA DCT DGO DCT LPA DCT GOSVI T429 TOPTU DCT TOU DCT GAI DCT DEGOL DCT FJR |
| Aircraft | B738/M-SDE3FGILRWY/SB1 |
Departure
| Time | N/A |
|---|---|
| Airport | Francisco de Sá Carneiro Airport (LPPR) |
Arrival
| Time | 2026-04-27 16:01 |
|---|---|
| Airport | Marseille Provence Airport (LFML) |
| Time | Latitude | Longitude | Altitude | Speed | Heading |
|---|---|---|---|---|---|
| 2026-04-27 14:57 | 42.05309 | -3.84915 | 38090 ft | 461 kts | 73° |
| 2026-04-27 14:57 | 42.07141 | -3.76646 | 38092 ft | 461 kts | 73° |
| 2026-04-27 14:58 | 42.08968 | -3.68367 | 38104 ft | 461 kts | 73° |
| 2026-04-27 14:58 | 42.10790 | -3.60080 | 38109 ft | 461 kts | 73° |
| 2026-04-27 14:59 | 42.12604 | -3.51794 | 38109 ft | 461 kts | 73° |
| 2026-04-27 14:59 | 42.14401 | -3.43557 | 38105 ft | 461 kts | 73° |
| 2026-04-27 15:00 | 42.16201 | -3.35277 | 38101 ft | 460 kts | 73° |
| 2026-04-27 15:00 | 42.17991 | -3.27006 | 38106 ft | 460 kts | 73° |
| 2026-04-27 15:01 | 42.19776 | -3.18731 | 38111 ft | 459 kts | 73° |
| 2026-04-27 15:01 | 42.21550 | -3.10469 | 38109 ft | 459 kts | 73° |
| 2026-04-27 15:02 | 42.23317 | -3.02213 | 38118 ft | 458 kts | 74° |
| 2026-04-27 15:02 | 42.25078 | -2.93947 | 38097 ft | 458 kts | 74° |
| 2026-04-27 15:03 | 42.26834 | -2.85677 | 38098 ft | 459 kts | 74° |
| 2026-04-27 15:03 | 42.28585 | -2.77395 | 38097 ft | 459 kts | 74° |
| 2026-04-27 15:04 | 42.30330 | -2.69111 | 38110 ft | 459 kts | 74° |
| 2026-04-27 15:04 | 42.32070 | -2.60818 | 38101 ft | 459 kts | 74° |
| 2026-04-27 15:05 | 42.33805 | -2.52511 | 38091 ft | 459 kts | 74° |
| 2026-04-27 15:05 | 42.35534 | -2.44206 | 38104 ft | 459 kts | 74° |
| 2026-04-27 15:06 | 42.37257 | -2.35892 | 38090 ft | 459 kts | 74° |
| 2026-04-27 15:06 | 42.38963 | -2.27628 | 38084 ft | 459 kts | 74° |
| 2026-04-27 15:07 | 42.40674 | -2.19305 | 38077 ft | 459 kts | 74° |
| 2026-04-27 15:07 | 42.42380 | -2.10975 | 38074 ft | 459 kts | 74° |
| 2026-04-27 15:08 | 42.44091 | -2.02580 | 38067 ft | 459 kts | 74° |
| 2026-04-27 15:08 | 42.45773 | -1.94299 | 38063 ft | 459 kts | 74° |
| 2026-04-27 15:09 | 42.47460 | -1.85960 | 38061 ft | 459 kts | 75° |
| 2026-04-27 15:09 | 42.49140 | -1.77619 | 38060 ft | 459 kts | 75° |
| 2026-04-27 15:10 | 42.50815 | -1.69270 | 38067 ft | 459 kts | 75° |
| 2026-04-27 15:10 | 42.52482 | -1.60921 | 38069 ft | 459 kts | 75° |
| 2026-04-27 15:11 | 42.54145 | -1.52563 | 38063 ft | 459 kts | 75° |
| 2026-04-27 15:11 | 42.55802 | -1.44198 | 38073 ft | 459 kts | 75° |
| 2026-04-27 15:12 | 42.57450 | -1.35843 | 38067 ft | 459 kts | 75° |
| 2026-04-27 15:12 | 42.59093 | -1.27478 | 38071 ft | 459 kts | 75° |
| 2026-04-27 15:13 | 42.60731 | -1.19107 | 38074 ft | 459 kts | 75° |
| 2026-04-27 15:13 | 42.62349 | -1.10795 | 38077 ft | 459 kts | 75° |
| 2026-04-27 15:14 | 42.63974 | -1.02418 | 38082 ft | 459 kts | 75° |
| 2026-04-27 15:14 | 42.65593 | -0.94038 | 38079 ft | 459 kts | 75° |
| 2026-04-27 15:15 | 42.67202 | -0.85667 | 38096 ft | 458 kts | 75° |
| 2026-04-27 15:15 | 42.68803 | -0.77308 | 38091 ft | 456 kts | 75° |
| 2026-04-27 15:16 | 42.70392 | -0.68969 | 38113 ft | 455 kts | 75° |
| 2026-04-27 15:16 | 42.71973 | -0.60641 | 38112 ft | 454 kts | 75° |
| 2026-04-27 15:17 | 42.73544 | -0.52328 | 38106 ft | 453 kts | 75° |
| 2026-04-27 15:17 | 42.75105 | -0.44033 | 38116 ft | 452 kts | 75° |
| 2026-04-27 15:18 | 42.76658 | -0.35742 | 38122 ft | 452 kts | 75° |
| 2026-04-27 15:18 | 42.78206 | -0.27448 | 38126 ft | 452 kts | 76° |
| 2026-04-27 15:19 | 42.79750 | -0.19141 | 38119 ft | 452 kts | 75° |
| 2026-04-27 15:19 | 42.81411 | -0.10879 | 38132 ft | 452 kts | 74° |
| 2026-04-27 15:20 | 42.83133 | -0.02694 | 38113 ft | 452 kts | 74° |
| 2026-04-27 15:20 | 42.84852 | 0.05539 | 38130 ft | 452 kts | 74° |
| 2026-04-27 15:21 | 42.86552 | 0.13790 | 38127 ft | 453 kts | 74° |
| 2026-04-27 15:21 | 42.88242 | 0.22058 | 38129 ft | 453 kts | 74° |
| 2026-04-27 15:22 | 42.89922 | 0.30319 | 38147 ft | 452 kts | 74° |
| 2026-04-27 15:22 | 42.91597 | 0.38590 | 38141 ft | 452 kts | 74° |
| 2026-04-27 15:23 | 42.93267 | 0.46867 | 38129 ft | 453 kts | 74° |
| 2026-04-27 15:23 | 42.94934 | 0.55160 | 38136 ft | 453 kts | 74° |
| 2026-04-27 15:24 | 42.96595 | 0.63458 | 38128 ft | 453 kts | 74° |
| 2026-04-27 15:24 | 42.98250 | 0.71765 | 38117 ft | 453 kts | 74° |
| 2026-04-27 15:25 | 42.99900 | 0.80076 | 38133 ft | 453 kts | 75° |
| 2026-04-27 15:25 | 43.01545 | 0.88398 | 38118 ft | 454 kts | 75° |
| 2026-04-27 15:26 | 43.03183 | 0.96723 | 38116 ft | 454 kts | 75° |
| 2026-04-27 15:26 | 43.04816 | 1.05052 | 38114 ft | 454 kts | 75° |
| 2026-04-27 15:27 | 43.06432 | 1.13334 | 38109 ft | 454 kts | 75° |
| 2026-04-27 15:27 | 43.08053 | 1.21674 | 38099 ft | 454 kts | 75° |
| 2026-04-27 15:28 | 43.09666 | 1.30008 | 38096 ft | 453 kts | 75° |
| 2026-04-27 15:28 | 43.11272 | 1.38346 | 38096 ft | 453 kts | 75° |
| 2026-04-27 15:29 | 43.12871 | 1.46680 | 38088 ft | 453 kts | 75° |
| 2026-04-27 15:29 | 43.14463 | 1.55014 | 38085 ft | 452 kts | 75° |
| 2026-04-27 15:30 | 43.16048 | 1.63345 | 38078 ft | 452 kts | 75° |
| 2026-04-27 15:30 | 43.17623 | 1.71664 | 38075 ft | 451 kts | 75° |
| 2026-04-27 15:31 | 43.19190 | 1.79972 | 38062 ft | 447 kts | 75° |
| 2026-04-27 15:31 | 43.19954 | 1.84039 | 38034 ft | 433 kts | 75° |
| 2026-04-27 15:31 | 43.20692 | 1.87976 | 38029 ft | 420 kts | 75° |
| 2026-04-27 15:32 | 43.21411 | 1.91821 | 37764 ft | 414 kts | 75° |
| 2026-04-27 15:32 | 43.22115 | 1.95590 | 37158 ft | 416 kts | 75° |
| 2026-04-27 15:32 | 43.22856 | 1.99562 | 35982 ft | 434 kts | 75° |
| 2026-04-27 15:32 | 43.23600 | 2.03559 | 35243 ft | 440 kts | 76° |
| 2026-04-27 15:33 | 43.24354 | 2.07620 | 34869 ft | 437 kts | 76° |
| 2026-04-27 15:33 | 43.25096 | 2.11627 | 34605 ft | 431 kts | 76° |
| 2026-04-27 15:33 | 43.25827 | 2.15581 | 34270 ft | 427 kts | 76° |
| 2026-04-27 15:33 | 43.26554 | 2.19522 | 33845 ft | 424 kts | 76° |
| 2026-04-27 15:34 | 43.27274 | 2.23437 | 33420 ft | 422 kts | 76° |
| 2026-04-27 15:34 | 43.27999 | 2.27381 | 33008 ft | 419 kts | 76° |
| 2026-04-27 15:34 | 43.28697 | 2.31191 | 32619 ft | 416 kts | 76° |
| 2026-04-27 15:34 | 43.29400 | 2.35035 | 32237 ft | 414 kts | 76° |
| 2026-04-27 15:35 | 43.30097 | 2.38850 | 31853 ft | 411 kts | 76° |
| 2026-04-27 15:35 | 43.30788 | 2.42647 | 31458 ft | 409 kts | 76° |
| 2026-04-27 15:35 | 43.31475 | 2.46422 | 31079 ft | 406 kts | 76° |
| 2026-04-27 15:35 | 43.32156 | 2.50178 | 30721 ft | 404 kts | 76° |
| 2026-04-27 15:36 | 43.32832 | 2.53910 | 30362 ft | 402 kts | 76° |
| 2026-04-27 15:36 | 43.33286 | 2.56425 | 30115 ft | 400 kts | 76° |
| 2026-04-27 15:36 | 43.33954 | 2.60125 | 29709 ft | 398 kts | 76° |
| 2026-04-27 15:36 | 43.34615 | 2.63797 | 29316 ft | 395 kts | 76° |
| 2026-04-27 15:37 | 43.35270 | 2.67442 | 28918 ft | 392 kts | 76° |
| 2026-04-27 15:37 | 43.35921 | 2.71068 | 28521 ft | 390 kts | 76° |
| 2026-04-27 15:37 | 43.36566 | 2.74670 | 28125 ft | 387 kts | 76° |
| 2026-04-27 15:37 | 43.37206 | 2.78254 | 27765 ft | 385 kts | 76° |
| 2026-04-27 15:38 | 43.37841 | 2.81813 | 27388 ft | 382 kts | 76° |
| 2026-04-27 15:38 | 43.38463 | 2.85308 | 27046 ft | 381 kts | 76° |
| 2026-04-27 15:38 | 43.39090 | 2.88837 | 26690 ft | 379 kts | 76° |
| 2026-04-27 15:38 | 43.39711 | 2.92341 | 26363 ft | 376 kts | 76° |
| 2026-04-27 15:39 | 43.40327 | 2.95825 | 26001 ft | 374 kts | 76° |
| 2026-04-27 15:39 | 43.40939 | 2.99291 | 25630 ft | 373 kts | 76° |
| 2026-04-27 15:39 | 43.41549 | 3.02748 | 25282 ft | 371 kts | 76° |
| 2026-04-27 15:39 | 43.42151 | 3.06174 | 24995 ft | 367 kts | 76° |
| 2026-04-27 15:40 | 43.42750 | 3.09583 | 24625 ft | 366 kts | 76° |
| 2026-04-27 15:40 | 43.43347 | 3.12987 | 24276 ft | 365 kts | 76° |
| 2026-04-27 15:40 | 43.43938 | 3.16366 | 23938 ft | 363 kts | 76° |
| 2026-04-27 15:40 | 43.44527 | 3.19736 | 23637 ft | 360 kts | 76° |
| 2026-04-27 15:41 | 43.45108 | 3.23068 | 23288 ft | 357 kts | 76° |
| 2026-04-27 15:41 | 43.45686 | 3.26392 | 22865 ft | 357 kts | 76° |
| 2026-04-27 15:41 | 43.46259 | 3.29696 | 22533 ft | 353 kts | 76° |
| 2026-04-27 15:41 | 43.46828 | 3.32977 | 22157 ft | 352 kts | 76° |
| 2026-04-27 15:42 | 43.47395 | 3.36251 | 21775 ft | 351 kts | 77° |
| 2026-04-27 15:42 | 43.47958 | 3.39511 | 21440 ft | 348 kts | 77° |
| 2026-04-27 15:42 | 43.48515 | 3.42745 | 21112 ft | 346 kts | 77° |
| 2026-04-27 15:42 | 43.49069 | 3.45965 | 20731 ft | 346 kts | 77° |
| 2026-04-27 15:43 | 43.49621 | 3.49177 | 20430 ft | 343 kts | 77° |
| 2026-04-27 15:43 | 43.50168 | 3.52365 | 20088 ft | 342 kts | 77° |
| 2026-04-27 15:43 | 43.50713 | 3.55549 | 19756 ft | 340 kts | 77° |
| 2026-04-27 15:43 | 43.51252 | 3.58703 | 19445 ft | 338 kts | 77° |
| 2026-04-27 15:44 | 43.51788 | 3.61849 | 19103 ft | 337 kts | 77° |
| 2026-04-27 15:44 | 43.52322 | 3.64987 | 18774 ft | 336 kts | 77° |
| 2026-04-27 15:44 | 43.52854 | 3.68116 | 18498 ft | 333 kts | 77° |
| 2026-04-27 15:44 | 43.53379 | 3.71212 | 18151 ft | 332 kts | 77° |
| 2026-04-27 15:45 | 43.53903 | 3.74308 | 17789 ft | 331 kts | 77° |
| 2026-04-27 15:45 | 43.54422 | 3.77379 | 17494 ft | 328 kts | 77° |
| 2026-04-27 15:45 | 43.54938 | 3.80438 | 17129 ft | 327 kts | 77° |
| 2026-04-27 15:45 | 43.55452 | 3.83490 | 16800 ft | 326 kts | 77° |
| 2026-04-27 15:46 | 43.55960 | 3.86513 | 16506 ft | 323 kts | 77° |
| 2026-04-27 15:46 | 43.56466 | 3.89521 | 16168 ft | 322 kts | 77° |
| 2026-04-27 15:46 | 43.56962 | 3.92478 | 15882 ft | 320 kts | 77° |
| 2026-04-27 15:46 | 43.57460 | 3.95455 | 15560 ft | 318 kts | 77° |
| 2026-04-27 15:47 | 43.57907 | 3.98427 | 15293 ft | 315 kts | 82° |
| 2026-04-27 15:47 | 43.58118 | 4.01426 | 14945 ft | 314 kts | 87° |
| 2026-04-27 15:47 | 43.58229 | 4.04430 | 14638 ft | 313 kts | 88° |
| 2026-04-27 15:47 | 43.58317 | 4.07409 | 14380 ft | 309 kts | 88° |
| 2026-04-27 15:48 | 43.58409 | 4.10368 | 14059 ft | 308 kts | 88° |
| 2026-04-27 15:48 | 43.58508 | 4.13321 | 13757 ft | 307 kts | 88° |
| 2026-04-27 15:48 | 43.58612 | 4.16248 | 13465 ft | 304 kts | 87° |
| 2026-04-27 15:49 | 43.58832 | 4.22042 | 12842 ft | 301 kts | 87° |
| 2026-04-27 15:49 | 43.58945 | 4.24916 | 12532 ft | 300 kts | 86° |
| 2026-04-27 15:49 | 43.59058 | 4.27777 | 12220 ft | 298 kts | 86° |
| 2026-04-27 15:49 | 43.59169 | 4.30620 | 11926 ft | 296 kts | 86° |
| 2026-04-27 15:50 | 43.59280 | 4.33441 | 11623 ft | 292 kts | 86° |
| 2026-04-27 15:50 | 43.59389 | 4.36222 | 11159 ft | 290 kts | 85° |
| 2026-04-27 15:50 | 43.59495 | 4.38982 | 10732 ft | 287 kts | 85° |
| 2026-04-27 15:50 | 43.59601 | 4.41713 | 10351 ft | 283 kts | 85° |
| 2026-04-27 15:51 | 43.59706 | 4.44402 | 9947 ft | 280 kts | 85° |
| 2026-04-27 15:51 | 43.59810 | 4.47076 | 9447 ft | 279 kts | 85° |
| 2026-04-27 15:51 | 43.59913 | 4.49736 | 8993 ft | 277 kts | 85° |
| 2026-04-27 15:51 | 43.60013 | 4.52373 | 8583 ft | 273 kts | 85° |
| 2026-04-27 15:52 | 43.60111 | 4.54955 | 8267 ft | 266 kts | 85° |
| 2026-04-27 15:52 | 43.60207 | 4.57475 | 7976 ft | 260 kts | 85° |
| 2026-04-27 15:52 | 43.60296 | 4.59935 | 7698 ft | 254 kts | 85° |
| 2026-04-27 15:52 | 43.60386 | 4.62354 | 7433 ft | 252 kts | 85° |
| 2026-04-27 15:53 | 43.60477 | 4.64784 | 7178 ft | 255 kts | 85° |
| 2026-04-27 15:53 | 43.60570 | 4.67269 | 6916 ft | 264 kts | 85° |
| 2026-04-27 15:53 | 43.60664 | 4.69824 | 6650 ft | 268 kts | 86° |
| 2026-04-27 15:53 | 43.60756 | 4.72329 | 6508 ft | 255 kts | 85° |
| 2026-04-27 15:54 | 43.60841 | 4.74731 | 6187 ft | 250 kts | 85° |
| 2026-04-27 15:54 | 43.60928 | 4.77153 | 5713 ft | 254 kts | 85° |
| 2026-04-27 15:54 | 43.61015 | 4.79582 | 5321 ft | 253 kts | 85° |
| 2026-04-27 15:54 | 43.61100 | 4.81996 | 4989 ft | 250 kts | 85° |
| 2026-04-27 15:55 | 43.61186 | 4.84386 | 4579 ft | 249 kts | 86° |
| 2026-04-27 15:55 | 43.61244 | 4.85960 | 4306 ft | 248 kts | 86° |
| 2026-04-27 15:55 | 43.61353 | 4.89131 | 4029 ft | 242 kts | 86° |
| 2026-04-27 15:55 | 43.61429 | 4.91372 | 4002 ft | 226 kts | 85° |
| 2026-04-27 15:56 | 43.61499 | 4.93481 | 4020 ft | 216 kts | 85° |
| 2026-04-27 15:56 | 43.61304 | 4.95521 | 3969 ft | 218 kts | 117° |
| 2026-04-27 15:56 | 43.60406 | 4.97203 | 4047 ft | 222 kts | 126° |
| 2026-04-27 15:56 | 43.59444 | 4.98905 | 4006 ft | 226 kts | 128° |
| 2026-04-27 15:57 | 43.58397 | 5.00531 | 3810 ft | 228 kts | 131° |
| 2026-04-27 15:57 | 43.57298 | 5.02110 | 3525 ft | 230 kts | 131° |
| 2026-04-27 15:57 | 43.56190 | 5.03675 | 3267 ft | 228 kts | 131° |
| 2026-04-27 15:57 | 43.55081 | 5.05252 | 2938 ft | 227 kts | 133° |
| 2026-04-27 15:58 | 43.53986 | 5.06803 | 2633 ft | 225 kts | 133° |
| 2026-04-27 15:58 | 43.52930 | 5.08334 | 2340 ft | 215 kts | 134° |
| 2026-04-27 15:58 | 43.51910 | 5.09773 | 2046 ft | 204 kts | 135° |
| 2026-04-27 15:58 | 43.50965 | 5.11110 | 1797 ft | 187 kts | 136° |
| 2026-04-27 15:59 | 43.50089 | 5.12351 | 1553 ft | 177 kts | 136° |
| 2026-04-27 15:59 | 43.49245 | 5.13559 | 1303 ft | 174 kts | 136° |
| 2026-04-27 15:59 | 43.48454 | 5.14686 | 1126 ft | 153 kts | 137° |
| 2026-04-27 15:59 | 43.47756 | 5.15685 | 927 ft | 141 kts | 137° |
| 2026-04-27 16:00 | 43.47073 | 5.16649 | 730 ft | 140 kts | 139° |
| 2026-04-27 16:00 | 43.46627 | 5.17284 | 594 ft | 138 kts | 139° |
| 2026-04-27 16:00 | 43.45739 | 5.18550 | 359 ft | 137 kts | 137° |
| 2026-04-27 16:00 | 43.45092 | 5.19476 | 173 ft | 133 kts | 137° |
| 2026-04-27 16:01 | 43.44483 | 5.20365 | 46 ft | 123 kts | 137° |
| 2026-04-27 16:01 | 43.43956 | 5.21094 | 35 ft | 90 kts | 134° |
| 2026-04-27 16:01 | 43.43604 | 5.21594 | 35 ft | 55 kts | 134° |
| 2026-04-27 16:01 | 43.43375 | 5.21918 | 34 ft | 44 kts | 131° |
| 2026-04-27 16:02 | 43.43337 | 5.22213 | 36 ft | 21 kts | 77° |
| 2026-04-27 16:02 | 43.43438 | 5.22269 | 35 ft | 22 kts | 333° |
| 2026-04-27 16:02 | 43.43573 | 5.22164 | 36 ft | 21 kts | 329° |
| 2026-04-27 16:02 | 43.43696 | 5.22065 | 36 ft | 20 kts | 330° |
| 2026-04-27 16:03 | 43.43806 | 5.21951 | 36 ft | 20 kts | 315° |
| 2026-04-27 16:03 | 43.43899 | 5.21820 | 36 ft | 19 kts | 314° |
| 2026-04-27 16:03 | 43.43986 | 5.21696 | 36 ft | 15 kts | 317° |
| 2026-04-27 16:03 | 43.44058 | 5.21739 | 36 ft | 11 kts | 43° |
| 2026-04-27 16:04 | 43.44114 | 5.21742 | 36 ft | 8 kts | 322° |
| 2026-04-27 16:04 | 43.44155 | 5.21720 | 36 ft | 6 kts | 36° |
| 2026-04-27 16:04 | 43.44164 | 5.21763 | 36 ft | 0 kts | 92° |